TJMZTNCM

Guest
Details From TJMZ - Mayaguez/Eugenio Maria De Hostos
To TNCM - St Maarten - Princess Juliana Intl
Flight Number -
Tags generated
Created
Modified
Stats Distance 233 nm / 432 km
Max Altitude 31,000 ft / 9,449 m
Waypoints 6
Social Downloads 17
Likes 0
Share VATSIM

Download

Looking for another format? Having issues loading an existing format? Contact us
Advertisement - Login to hide

Notes

Basic altitude profile: - Ascent Rate: 2500ft/min - Ascent Speed: 250kts - Cruise Altitude: 35000ft - Cruise Speed: 420kts - Descent Rate: 1500ft/min - Descent Speed: 250kts Options: - Use NATs: yes - Use PACOTS: yes - Use low airways: yes - Use high airways: yes

Route

TJMZ CHAKA RTE6 STT B520 PASIC TNCM

ID Type Via Altitude Latitude Longitude Leg Dist Tot Dist Heading (true) Name
O TJMZ APT - 0 ft / 0 m 18.25564˚ -67.14845˚ - 0 nm - Mayaguez/Eugenio Maria De Hostos
CHAKA FIX - 31,000 ft / 9,449 m 18.37288˚ -65.62953˚ 86 nm 86 nm 85° / 86° -
PALCO FIX RTE6 (AWY-LO) 17,000 ft / 5,182 m 18.29171˚ -65.23562˚ 22 nm 109 nm 102° / 102° -
STT DME RTE6 (AWY-LO) 17,000 ft / 5,182 m 18.35582˚ -65.02456˚ 12 nm 122 nm 72° / 72° ST THOMAS VOR-DME
PASIC FIX B520 (AWY-HI) 19,100 ft / 5,822 m 18.29481˚ -64.65002˚ 21 nm 144 nm 100° / 100° -
O TNCM APT - 0 ft / 0 m 18.04089˚ -63.10897˚ 89 nm 233 nm 100° / 100° St Maarten - Princess Juliana Intl

Altitude Profile

Advertisement - Login to hide

Weather


0- 5 10 15 20 25 30 35+ Temperature / ° C

Clouds and Precipitation
Forecast for 2017-12-11 18:00 UTC. Updated 2 hours ago

Ground ~20,000 ft ~40,000 ft Winds

TJMZ

Details ICAO TJMZ (MAZ)
Name Mayaguez/Eugenio Maria De Hostos
Region USA (Puerto Rico)
Timezone America/Puerto_Rico (UTC-4.0)
Stats Elevation 28 ft / 9 m (AMSL)
Location 18.255644° -67.148451°
Runways 1
Magnetic Variation 12.712° W

METAR

Not found

TAF

TAF TJMZ 111141Z 1112/1212 06004KT P6SM FEW030 FM111400 08012KT P6SM SCT030 FM111800 VRB06KT P6SM VCSH SCT030 BKN040 FM112200 06008KT P6SM SCT030 AMD NOT SKED

Decode

Departure Runways

ID Width Length Bearing (true) Bearing (mag) Surface Threshold Offset Overrun Length
09 98 ft / 30 m 4,995 ft / 1,522 m 76.40° 89.11° Asphalt 0 ft / 0 m 0 ft / 0 m
27 98 ft / 30 m 4,995 ft / 1,522 m 256.41° 269.12° Asphalt 0 ft / 0 m 0 ft / 0 m

TNCM

Details ICAO TNCM (SXM)
Name St Maarten - Princess Juliana Intl
Region Caribbean Netherlands, Aruba, Curaçao, Sint Maarten
Timezone Unknown (UTC+0.0)
Stats Elevation 12 ft / 4 m (AMSL)
Location 18.040889° -63.108974°
Runways 1
Magnetic Variation 14.325° W

METAR

TNCM 111800Z 06010KT 030V100 9999 SCT020 29/21 Q1012 NOSIG RMK A2989

Decode

TAF

TAF TNCM 111141Z 1112/1212 06010KT P6SM FEW020

Decode

Destination Runways

ID Width Length Bearing (true) Bearing (mag) Surface Threshold Offset Overrun Length
10 148 ft / 45 m 7,464 ft / 2,275 m 81.43° 95.75° Asphalt 0 ft / 0 m 151 ft / 46 m
28 148 ft / 45 m 7,464 ft / 2,275 m 261.44° 275.76° Asphalt 397 ft / 121 m 0 ft / 0 m

Popular Alternatives